Hagaman, New York
Current Conditions -  °F | °C
As of 7:35 AM on Saturday 25 Oct 2014 (Local Time) from KNY0 Reporting Station
Overcast Overcast  
Wind Chill: 39°   Ceiling: 1400
Heat Index: 44°   Visibility: 7mi
Dew Point: 41°   Wind: 8mph
Humidity: 90%   Direction: 250°WSW
Pressure: 29.83"   Gusts: NA
Location:  42.97°N, 74.15°W
Report Text: KNY0 251135Z AUTO 25007KT 7SM OVC014 07/05 A2983 RMK AO2 T00660050
Loading
Personal Weather Stations






























Interactive Weather Map
Tropical Storm Tracking
New forecast layout! Learn more

10-Day Weather Forecast

Advertisements
Track Severe Weather on mobile